Aviation Digital Data Service (ADDS)

Output produced by METARs form (1907 UTC 22 May 2015)
found at http://aviationweather.gov/adds/metars/
 
KEKN 221721Z 2218/2318 25010G18KT P6SM FEW035 
     FM230000 28010G16KT P6SM BKN035 
     FM230100 30009KT P6SM SCT030 
     FM230300 35007KT P6SM SCT030 
     FM230600 00000KT P6SM FEW030 
     FM230700 00000KT P6SM SCT250